Time;durP1;ratioP1;P1;durP2;ratioP2;P2;SDS_P1;SDS_P2;PMS_P1;PMS_P2;Temp;Humidity;BMP_temperature;BMP_pressure;BME280_temperature;BME280_humidity;BME280_pressure;Samples;Min_cycle;Max_cycle;Signal;HPM_P1;HPM_P2
2023/06/14 00:03:00;;;;;;;4.30;2.70;;;;;;;18.53;40.71;100341.19;10187183;29;20044;-75
2023/06/14 00:08:05;;;;;;;4.53;2.88;;;;;;;18.45;40.80;100350.25;10190286;29;20043;-74
2023/06/14 00:13:08;;;;;;;4.15;2.42;;;;;;;18.32;40.71;100356.25;10193546;29;20048;-75
2023/06/14 00:18:13;;;;;;;7.82;2.83;;;;;;;18.14;40.87;100358.34;10191249;29;20063;-74
2023/06/14 00:23:16;;;;;;;9.18;3.38;;;;;;;18.00;40.88;100354.50;10192425;29;20467;-74
2023/06/14 00:28:19;;;;;;;4.65;2.60;;;;;;;17.99;41.24;100358.22;10191740;29;20123;-75
2023/06/14 00:33:24;;;;;;;8.20;2.60;;;;;;;17.92;41.11;100366.19;10190590;29;20051;-73
2023/06/14 00:38:27;;;;;;;4.03;2.20;;;;;;;17.88;41.43;100369.41;10206750;29;20048;-74
2023/06/14 00:43:30;;;;;;;5.55;2.65;;;;;;;17.77;41.45;100376.06;10192813;29;20067;-74
2023/06/14 00:48:37;;;;;;;5.07;2.80;;;;;;;17.66;41.82;100371.84;10191943;29;20043;-74
2023/06/14 00:53:46;;;;;;;2.97;2.30;;;;;;;17.65;41.85;100372.84;10196572;29;20793;-74
2023/06/14 00:58:49;;;;;;;2.95;2.65;;;;;;;17.60;41.83;100368.94;10194133;29;20051;-75
2023/06/14 01:03:53;;;;;;;4.35;2.33;;;;;;;17.58;41.92;100370.97;10190627;29;20122;-75
2023/06/14 01:09:04;;;;;;;5.97;2.60;;;;;;;17.51;42.09;100370.81;10198599;29;20054;-75
2023/06/14 01:14:08;;;;;;;5.30;2.65;;;;;;;17.43;42.24;100371.66;10194722;29;20093;-75
2023/06/14 01:19:14;;;;;;;5.57;2.80;;;;;;;17.40;41.92;100372.00;10189206;29;20052;-74
2023/06/14 01:24:19;;;;;;;3.42;2.45;;;;;;;17.45;42.15;100379.66;10186379;29;20142;-74
2023/06/14 01:29:23;;;;;;;6.60;2.75;;;;;;;17.37;42.25;100379.66;10187085;29;20055;-74
2023/06/14 01:34:27;;;;;;;5.43;2.90;;;;;;;17.25;42.56;100376.38;10202720;29;20095;-74
2023/06/14 01:39:33;;;;;;;6.88;2.42;;;;;;;17.21;42.73;100375.03;10185122;29;20087;-74
2023/06/14 01:44:36;;;;;;;5.30;2.40;;;;;;;17.19;42.90;100382.50;10180247;29;20040;-74
2023/06/14 01:49:39;;;;;;;3.95;2.40;;;;;;;17.15;42.74;100381.16;10176505;29;20043;-74
2023/06/14 01:54:45;;;;;;;2.80;2.13;;;;;;;17.16;42.90;100389.09;10180244;29;20043;-74
2023/06/14 01:59:49;;;;;;;5.47;2.65;;;;;;;17.16;42.84;100390.97;10181140;29;20051;-74
2023/06/14 02:04:52;;;;;;;5.82;2.75;;;;;;;17.15;43.23;100392.84;10184156;29;20423;-74
2023/06/14 02:09:56;;;;;;;3.65;2.47;;;;;;;17.02;43.67;100398.72;10182934;29;20043;-75
2023/06/14 02:14:59;;;;;;;5.72;2.50;;;;;;;16.66;44.63;100403.53;10187251;29;20058;-74
2023/06/14 02:20:03;;;;;;;3.65;2.47;;;;;;;16.45;45.39;100406.66;10184230;29;20068;-74
2023/06/14 02:25:08;;;;;;;6.03;2.25;;;;;;;16.05;46.09;100412.69;10190422;29;20040;-74
2023/06/14 02:30:12;;;;;;;3.72;2.58;;;;;;;15.53;47.21;100416.19;10187344;29;20055;-74
2023/06/14 02:35:16;;;;;;;3.67;2.22;;;;;;;15.69;47.15;100420.88;10194876;29;20123;-74
2023/06/14 02:40:20;;;;;;;3.70;2.70;;;;;;;15.70;47.39;100419.88;10193154;29;20041;-74
2023/06/14 02:45:23;;;;;;;5.93;2.50;;;;;;;15.62;47.03;100417.09;10205195;28;20047;-74
2023/06/14 02:50:28;;;;;;;3.60;2.50;;;;;;;15.66;46.96;100426.59;10204709;29;20054;-74
2023/06/14 02:55:32;;;;;;;2.55;2.30;;;;;;;15.59;47.04;100420.13;10189516;29;20040;-74
2023/06/14 03:00:36;;;;;;;3.95;2.75;;;;;;;15.67;47.07;100414.75;10189957;29;20036;-74
2023/06/14 03:05:40;;;;;;;5.13;2.60;;;;;;;15.53;47.68;100427.00;10190399;29;20063;-74
2023/06/14 03:10:45;;;;;;;4.00;2.70;;;;;;;15.45;47.71;100429.63;10189820;29;20048;-74
2023/06/14 03:15:50;;;;;;;4.97;2.63;;;;;;;15.37;47.76;100437.69;10189342;29;20043;-74
2023/06/14 03:20:53;;;;;;;5.22;2.50;;;;;;;15.40;47.88;100429.25;10190767;29;20407;-74
2023/06/14 03:25:58;;;;;;;4.38;2.97;;;;;;;15.34;48.56;100437.97;10188354;29;20048;-74
2023/06/14 03:31:01;;;;;;;3.03;2.30;;;;;;;15.34;48.48;100435.25;10188075;29;20052;-74
2023/06/14 03:36:07;;;;;;;3.17;2.30;;;;;;;15.34;49.05;100446.06;10182720;29;20048;-74
2023/06/14 03:41:12;;;;;;;4.50;2.35;;;;;;;15.33;48.59;100442.53;10194699;29;20491;-74
2023/06/14 03:46:15;;;;;;;3.65;2.63;;;;;;;15.25;48.81;100451.41;10190377;29;20055;-74
2023/06/14 03:51:18;;;;;;;2.53;2.33;;;;;;;15.30;49.26;100453.63;10187028;29;20044;-74
2023/06/14 03:56:22;;;;;;;4.45;2.50;;;;;;;15.35;48.63;100467.59;10179986;29;20147;-74
2023/06/14 04:01:29;;;;;;;6.22;2.95;;;;;;;15.29;48.83;100465.47;10189015;29;20135;-74
2023/06/14 04:06:35;;;;;;;2.97;2.50;;;;;;;15.40;48.76;100477.97;10187858;29;20072;-74
2023/06/14 04:11:41;;;;;;;3.58;3.05;;;;;;;15.47;48.82;100482.63;10181085;29;20067;-73
2023/06/14 04:16:44;;;;;;;6.95;2.75;;;;;;;15.60;48.56;100478.66;10172814;29;20060;-74
2023/06/14 04:21:47;;;;;;;6.15;2.58;;;;;;;15.65;48.84;100482.59;10182804;29;20256;-74
2023/06/14 04:26:53;;;;;;;4.18;2.80;;;;;;;15.65;48.92;100488.00;10186583;29;20056;-73
2023/06/14 04:31:59;;;;;;;3.00;2.50;;;;;;;15.69;49.33;100492.13;10177004;29;20050;-74
2023/06/14 04:37:02;;;;;;;5.10;2.58;;;;;;;15.72;49.51;100498.25;10191291;29;20060;-73
2023/06/14 04:42:13;;;;;;;2.78;2.28;;;;;;;15.87;49.47;100502.09;10190204;29;20129;-74
2023/06/14 04:47:16;;;;;;;8.10;2.78;;;;;;;15.96;49.74;100516.56;10185032;29;20507;-73
2023/06/14 04:52:20;;;;;;;4.20;2.70;;;;;;;16.03;48.83;100518.50;10181534;29;20083;-74
2023/06/14 04:57:25;;;;;;;2.88;2.47;;;;;;;16.17;48.87;100516.22;10187066;29;20392;-74
2023/06/14 05:02:32;;;;;;;4.50;2.42;;;;;;;16.27;48.57;100522.44;10201336;29;20103;-74
2023/06/14 05:07:36;;;;;;;6.45;2.17;;;;;;;16.34;48.18;100523.50;10186533;29;20584;-73
2023/06/14 05:12:43;;;;;;;3.38;2.28;;;;;;;16.44;48.45;100526.97;10192289;29;20567;-73
2023/06/14 05:17:55;;;;;;;6.80;2.25;;;;;;;16.53;48.54;100536.84;10194628;29;20055;-74
2023/06/14 05:22:58;;;;;;;4.03;1.90;;;;;;;16.63;48.22;100530.47;10186932;29;20135;-74
2023/06/14 05:28:02;;;;;;;9.68;2.10;;;;;;;16.74;48.43;100536.47;10187923;29;20423;-74
2023/06/14 05:33:05;;;;;;;2.83;1.80;;;;;;;16.84;48.08;100532.78;10186244;29;20036;-74
2023/06/14 05:38:08;;;;;;;3.50;2.22;;;;;;;16.87;47.73;100532.47;10188693;29;20053;-73
2023/06/14 05:43:12;;;;;;;2.72;2.00;;;;;;;17.19;47.78;100537.22;10190737;29;20055;-74
2023/06/14 05:48:15;;;;;;;2.03;1.80;;;;;;;17.21;46.95;100546.03;10186706;29;20450;-74
2023/06/14 05:53:18;;;;;;;2.45;1.50;;;;;;;17.30;47.14;100544.22;10184365;29;20051;-74
2023/06/14 05:58:22;;;;;;;3.05;2.15;;;;;;;17.36;47.31;100552.56;10186870;29;20739;-73
2023/06/14 06:04:09;;;;;;;3.42;1.90;;;;;;;17.11;47.35;100562.41;10186139;29;20051;-73
2023/06/14 06:09:14;;;;;;;2.10;1.90;;;;;;;17.17;46.98;100564.53;10184631;29;20040;-73
2023/06/14 06:14:18;;;;;;;4.55;1.90;;;;;;;17.22;46.64;100567.63;10183017;29;20119;-74
2023/06/14 06:19:21;;;;;;;2.63;2.10;;;;;;;17.36;47.02;100581.56;10185761;29;20063;-73
2023/06/14 06:24:23;;;;;;;3.60;1.80;;;;;;;17.36;46.87;100585.16;10182726;29;20051;-73
2023/06/14 06:29:27;;;;;;;1.80;1.20;;;;;;;17.63;45.55;100575.03;10184383;29;20048;-74
2023/06/14 06:34:30;;;;;;;4.30;1.70;;;;;;;17.58;44.81;100575.53;10194387;29;20051;-74
2023/06/14 06:39:33;;;;;;;2.80;1.80;;;;;;;17.49;45.40;100579.22;10193371;29;20040;-73
2023/06/14 06:44:37;;;;;;;2.28;1.50;;;;;;;17.81;44.61;100585.78;10185414;29;20051;-73
2023/06/14 06:49:40;;;;;;;2.85;1.58;;;;;;;17.99;44.28;100588.38;10173300;29;20052;-73
2023/06/14 06:54:43;;;;;;;5.53;1.40;;;;;;;18.40;43.82;100593.81;10175376;29;20509;-73
2023/06/14 06:59:47;;;;;;;2.35;1.40;;;;;;;18.44;43.40;100596.03;10179219;29;20531;-73
2023/06/14 07:04:50;;;;;;;4.43;1.20;;;;;;;18.57;42.16;100600.97;10183330;29;20052;-75
2023/06/14 07:09:53;;;;;;;2.85;1.50;;;;;;;18.54;43.03;100601.28;10183572;29;20051;-73
2023/06/14 07:14:58;;;;;;;2.28;1.20;;;;;;;18.45;42.61;100602.31;10187670;29;20059;-73
2023/06/14 07:20:11;;;;;;;1.70;1.33;;;;;;;19.34;41.90;100603.19;10202069;29;20044;-73
2023/06/14 07:25:14;;;;;;;3.65;1.65;;;;;;;21.51;39.01;100591.88;10199897;29;20530;-73
2023/06/14 07:30:20;;;;;;;3.05;2.60;;;;;;;23.01;36.07;100605.53;10201407;29;20047;-73
2023/06/14 07:35:23;;;;;;;3.90;1.77;;;;;;;23.21;35.38;100606.53;10203535;29;20031;-72
2023/06/14 07:40:25;;;;;;;4.95;1.90;;;;;;;23.54;34.95;100599.53;10202745;29;20545;-73
2023/06/14 07:45:30;;;;;;;4.97;1.40;;;;;;;22.78;35.06;100603.88;10204048;29;20042;-73
2023/06/14 07:50:32;;;;;;;1.88;1.73;;;;;;;22.74;36.23;100618.19;10204360;29;20647;-73
2023/06/14 07:55:36;;;;;;;2.78;2.47;;;;;;;22.28;36.66;100611.25;10204186;29;20075;-72
2023/06/14 08:00:56;;;;;;;3.20;1.48;;;;;;;21.60;37.24;100607.94;10196935;29;20060;-75
2023/06/14 08:06:00;;;;;;;3.10;1.55;;;;;;;21.88;38.42;100616.28;10199641;29;20051;-75
2023/06/14 08:11:03;;;;;;;4.20;1.73;;;;;;;21.07;38.20;100622.78;10212929;29;20549;-74
2023/06/14 08:16:07;;;;;;;2.72;1.48;;;;;;;20.98;38.30;100625.56;10199350;29;20107;-75
2023/06/14 08:21:10;;;;;;;2.00;1.48;;;;;;;20.68;39.00;100627.41;10192177;29;20044;-74
2023/06/14 08:26:13;;;;;;;2.45;1.48;;;;;;;21.02;38.59;100626.03;10194825;29;20601;-75
2023/06/14 08:31:17;;;;;;;1.48;1.38;;;;;;;21.15;38.93;100606.31;10198009;29;20047;-75
2023/06/14 08:36:20;;;;;;;1.85;1.52;;;;;;;21.25;38.31;100623.25;10196827;29;20036;-75
2023/06/14 08:41:24;;;;;;;4.72;1.60;;;;;;;21.04;38.79;100617.72;10197798;29;20110;-75
2023/06/14 08:46:29;;;;;;;9.20;1.55;;;;;;;21.43;38.38;100620.97;10188713;29;20107;-75
2023/06/14 08:51:34;;;;;;;4.50;1.55;;;;;;;21.58;38.11;100620.09;10183563;29;20041;-74
2023/06/14 08:56:41;;;;;;;1.45;1.30;;;;;;;21.29;38.68;100621.84;10182102;29;20048;-75
2023/06/14 09:01:47;;;;;;;1.50;1.40;;;;;;;21.44;38.00;100628.13;10183276;29;20048;-77
2023/06/14 09:07:09;;;;;;;2.65;1.33;;;;;;;21.71;38.29;100616.69;10180296;29;20086;-77
2023/06/14 09:12:12;;;;;;;1.65;1.40;;;;;;;22.18;37.60;100631.75;10177980;29;20071;-76
2023/06/14 09:17:17;;;;;;;2.00;1.58;;;;;;;21.77;37.03;100637.81;10180919;29;20054;-76
2023/06/14 09:22:20;;;;;;;3.30;1.90;;;;;;;22.16;37.30;100629.22;10185887;29;20044;-76
2023/06/14 09:27:23;;;;;;;1.95;1.63;;;;;;;21.94;37.28;100625.63;10186988;29;20047;-77
2023/06/14 09:32:27;;;;;;;3.75;1.50;;;;;;;22.02;37.05;100630.97;10182611;29;20044;-77
2023/06/14 09:37:30;;;;;;;3.38;1.35;;;;;;;22.05;37.11;100630.59;10187233;29;20123;-77
2023/06/14 09:42:35;;;;;;;2.97;1.30;;;;;;;23.00;35.88;100634.81;10192278;29;20039;-76
2023/06/14 09:47:40;;;;;;;1.92;1.50;;;;;;;23.39;35.68;100632.53;10190436;29;20039;-77
2023/06/14 09:53:04;;;;;;;3.30;1.67;;;;;;;23.57;35.46;100632.00;10190140;29;20047;-77
2023/06/14 09:58:09;;;;;;;2.42;1.30;;;;;;;23.73;34.15;100633.56;10194179;29;20442;-77
2023/06/14 10:03:22;;;;;;;3.00;1.60;;;;;;;23.70;34.32;100642.19;10199344;29;20136;-77
2023/06/14 10:08:28;;;;;;;3.60;1.50;;;;;;;24.19;33.22;100627.34;10193119;29;20452;-77
2023/06/14 10:13:33;;;;;;;3.67;1.63;;;;;;;24.18;33.58;100636.66;10204637;29;20054;-77
2023/06/14 10:18:46;;;;;;;4.68;1.58;;;;;;;24.75;34.95;100627.00;10194130;29;20047;-77
2023/06/14 10:23:51;;;;;;;2.45;1.75;;;;;;;24.80;34.90;100621.72;10191055;29;20046;-78
2023/06/14 10:28:59;;;;;;;2.95;1.70;;;;;;;24.90;34.35;100611.16;10192096;29;20053;-77
2023/06/14 10:34:03;;;;;;;4.00;1.60;;;;;;;24.11;35.71;100617.44;10195139;29;20055;-77
2023/06/14 10:39:08;;;;;;;2.42;2.20;;;;;;;24.81;34.39;100615.16;10190916;29;20044;-77
2023/06/14 10:44:40;;;;;;;2.30;2.10;;;;;;;24.84;33.32;100616.66;10192682;29;20076;-77
2023/06/14 10:49:46;;;;;;;3.53;1.57;;;;;;;25.39;32.32;100597.94;10195726;29;20055;-77
2023/06/14 10:55:10;;;;;;;3.63;1.90;;;;;;;25.09;32.66;100601.19;10195891;29;20407;-78
2023/06/14 11:00:21;;;;;;;2.95;1.58;;;;;;;25.56;33.12;100606.53;10196748;29;20055;-77
2023/06/14 11:05:27;;;;;;;4.00;1.50;;;;;;;25.24;32.89;100600.97;10197503;29;20251;-77
2023/06/14 11:10:37;;;;;;;2.13;1.48;;;;;;;25.00;33.07;100604.38;10189510;29;20392;-77
2023/06/14 11:15:45;;;;;;;1.90;1.65;;;;;;;25.38;31.47;100585.25;10194304;29;20040;-78
2023/06/14 11:20:49;;;;;;;4.45;1.80;;;;;;;25.66;31.79;100592.38;10196379;29;20043;-78
2023/06/14 11:25:52;;;;;;;2.47;2.20;;;;;;;25.30;31.94;100596.50;10209500;29;20051;-77
2023/06/14 11:31:01;;;;;;;2.15;2.00;;;;;;;26.16;32.05;100590.56;10198585;29;20096;-76
2023/06/14 11:36:08;;;;;;;2.05;1.85;;;;;;;26.92;30.79;100585.97;10186369;29;20043;-76
2023/06/14 11:41:11;;;;;;;2.28;2.10;;;;;;;27.13;30.40;100573.66;10185048;29;20124;-76
2023/06/14 11:46:16;;;;;;;2.88;2.05;;;;;;;26.47;31.49;100581.47;10188197;29;20083;-76
2023/06/14 11:51:21;;;;;;;3.00;1.88;;;;;;;27.39;30.50;100587.09;10187361;29;20051;-76
2023/06/14 11:56:25;;;;;;;2.30;2.00;;;;;;;27.42;29.94;100582.25;10188496;29;20074;-76
2023/06/14 12:01:27;;;;;;;4.75;2.10;;;;;;;27.53;30.74;100582.28;10188490;29;20048;-76
2023/06/14 12:06:35;;;;;;;2.45;1.80;;;;;;;27.88;29.25;100569.75;10190460;29;20043;-76
2023/06/14 12:11:39;;;;;;;2.10;1.90;;;;;;;27.83;30.76;100582.31;10192134;29;20059;-76
2023/06/14 12:16:42;;;;;;;4.13;1.90;;;;;;;27.23;30.06;100575.84;10192382;29;20055;-76
2023/06/14 12:21:49;;;;;;;3.45;1.52;;;;;;;27.03;30.66;100581.59;10195347;29;20040;-76
2023/06/14 12:26:52;;;;;;;1.73;1.35;;;;;;;27.26;29.60;100573.50;10194363;29;20050;-76
2023/06/14 12:31:56;;;;;;;1.42;1.30;;;;;;;27.58;29.62;100565.88;10193423;29;20050;-76
2023/06/14 12:37:01;;;;;;;3.67;1.40;;;;;;;27.15;29.63;100564.09;10196067;29;20044;-77
2023/06/14 12:42:04;;;;;;;2.92;1.63;;;;;;;27.73;28.88;100562.72;10193980;29;20567;-77
2023/06/14 12:47:08;;;;;;;5.15;1.60;;;;;;;27.81;29.42;100561.53;10194383;29;20048;-77
2023/06/14 12:52:12;;;;;;;2.55;1.40;;;;;;;28.60;28.84;100562.22;10192658;29;20044;-77
2023/06/14 12:57:15;;;;;;;3.15;1.50;;;;;;;28.85;28.29;100561.16;10195046;28;20052;-77
2023/06/14 13:02:20;;;;;;;1.77;1.67;;;;;;;28.60;28.51;100556.72;10193085;29;20043;-77
2023/06/14 13:07:28;;;;;;;1.48;1.38;;;;;;;27.10;29.25;100577.72;10190524;29;20571;-77
2023/06/14 13:12:31;;;;;;;2.42;1.40;;;;;;;26.52;30.90;100569.75;10188529;29;20040;-77
2023/06/14 13:17:38;;;;;;;2.45;2.15;;;;;;;26.22;31.94;100583.31;10191354;29;20530;-77
2023/06/14 13:22:42;;;;;;;2.33;1.77;;;;;;;26.10;31.60;100571.34;10188864;29;20044;-77
2023/06/14 13:27:45;;;;;;;5.60;1.67;;;;;;;26.28;31.27;100571.47;10186964;29;20036;-77
2023/06/14 13:32:49;;;;;;;5.28;1.60;;;;;;;27.41;30.90;100562.09;10184927;29;20042;-77
2023/06/14 13:37:54;;;;;;;1.80;1.70;;;;;;;28.08;29.27;100552.91;10184043;29;20044;-77
2023/06/14 13:42:56;;;;;;;4.43;2.00;;;;;;;27.69;29.79;100558.75;10182667;29;20036;-77
2023/06/14 13:48:00;;;;;;;2.42;1.60;;;;;;;26.32;30.88;100558.94;10177607;29;20054;-77
2023/06/14 13:53:04;;;;;;;5.68;2.08;;;;;;;25.92;32.32;100569.34;10173918;29;20040;-76
2023/06/14 13:58:07;;;;;;;3.08;2.47;;;;;;;26.17;32.28;100564.75;10174829;29;20044;-77
2023/06/14 14:03:11;;;;;;;2.15;2.03;;;;;;;26.13;31.80;100574.50;10190524;29;20048;-77
2023/06/14 14:08:15;;;;;;;6.35;2.10;;;;;;;26.44;31.46;100561.78;10185910;29;20040;-76
2023/06/14 14:13:18;;;;;;;6.38;2.08;;;;;;;27.46;30.68;100548.47;10184836;29;20047;-76
2023/06/14 14:18:21;;;;;;;2.33;2.13;;;;;;;27.90;29.82;100546.34;10179299;29;20122;-76
2023/06/14 14:23:26;;;;;;;2.80;2.20;;;;;;;28.70;29.31;100534.84;10179461;29;20036;-76
2023/06/14 14:28:28;;;;;;;3.15;2.15;;;;;;;29.16;28.84;100540.59;10183779;29;20419;-77
2023/06/14 14:33:31;;;;;;;3.55;2.28;;;;;;;29.64;28.36;100541.28;10182853;29;20579;-77
2023/06/14 14:38:35;;;;;;;2.50;2.28;;;;;;;29.09;28.29;100537.09;10186807;29;20420;-77
2023/06/14 14:43:38;;;;;;;2.85;2.15;;;;;;;29.12;28.90;100542.16;10186614;29;20448;-77
2023/06/14 14:48:41;;;;;;;7.65;2.03;;;;;;;29.22;28.84;100539.59;10187645;29;20043;-77
2023/06/14 14:53:45;;;;;;;4.82;2.38;;;;;;;28.84;28.92;100538.19;10194695;29;20470;-77
2023/06/14 14:58:49;;;;;;;5.28;2.45;;;;;;;29.37;28.64;100537.16;10191762;29;20063;-76
2023/06/14 15:03:52;;;;;;;5.80;2.60;;;;;;;29.94;28.63;100541.00;10201257;29;20055;-76
2023/06/14 15:09:02;;;;;;;2.60;2.40;;;;;;;29.28;29.16;100535.84;10186011;29;20044;-76
2023/06/14 15:14:05;;;;;;;4.90;2.65;;;;;;;28.85;29.23;100539.91;10185938;29;20032;-76
2023/06/14 15:19:08;;;;;;;4.10;2.92;;;;;;;28.68;29.23;100541.69;10185439;29;20047;-76
2023/06/14 15:24:13;;;;;;;5.32;2.78;;;;;;;29.11;29.27;100538.53;10183274;29;20044;-76
2023/06/14 15:29:15;;;;;;;5.03;3.08;;;;;;;28.63;29.53;100544.34;10181363;29;20423;-76
2023/06/14 15:34:18;;;;;;;9.77;3.15;;;;;;;28.56;29.60;100547.22;10186943;29;20472;-75
2023/06/14 15:39:23;;;;;;;7.15;2.95;;;;;;;28.80;29.60;100531.50;10193764;29;20047;-76
2023/06/14 15:44:27;;;;;;;6.72;3.05;;;;;;;28.62;28.96;100542.66;10202463;29;20046;-76
2023/06/14 15:49:30;;;;;;;5.28;2.63;;;;;;;28.66;29.44;100530.91;10200318;29;20040;-75
2023/06/14 15:54:34;;;;;;;5.88;2.88;;;;;;;29.56;28.49;100528.66;10199649;29;20048;-76
2023/06/14 15:59:37;;;;;;;3.33;2.90;;;;;;;28.54;29.27;100530.03;10200293;29;20054;-75
2023/06/14 16:04:40;;;;;;;4.00;2.80;;;;;;;25.89;32.77;100528.53;10197307;29;20052;-75
2023/06/14 16:09:44;;;;;;;5.15;2.72;;;;;;;25.65;34.10;100542.03;10178147;29;20048;-76
2023/06/14 16:14:47;;;;;;;3.95;2.53;;;;;;;27.47;31.45;100536.34;10180197;29;20538;-75
2023/06/14 16:19:50;;;;;;;6.95;2.90;;;;;;;28.82;29.34;100526.53;10184133;29;20048;-75
2023/06/14 16:24:54;;;;;;;6.47;3.42;;;;;;;29.45;28.71;100519.31;10178885;29;20503;-76
2023/06/14 16:29:57;;;;;;;3.97;3.10;;;;;;;29.79;28.34;100514.75;10180996;29;20055;-75
2023/06/14 16:35:00;;;;;;;3.97;2.97;;;;;;;32.94;24.99;100514.38;10182605;29;20043;-75
2023/06/14 16:40:05;;;;;;;3.28;2.80;;;;;;;33.85;24.47;100521.38;10194476;29;20044;-75
2023/06/14 16:45:09;;;;;;;6.82;2.90;;;;;;;32.41;25.03;100522.63;10192756;29;20567;-75
2023/06/14 16:50:12;;;;;;;3.83;2.60;;;;;;;28.89;29.10;100521.72;10197832;29;20052;-76
2023/06/14 16:55:16;;;;;;;8.30;4.15;;;;;;;29.51;28.36;100515.56;10194301;29;20043;-75
2023/06/14 17:00:20;;;;;;;6.80;3.08;;;;;;;32.59;25.50;100515.81;10195311;29;20039;-75
2023/06/14 17:05:23;;;;;;;6.10;2.88;;;;;;;35.74;23.15;100520.09;10198573;29;20051;-75
2023/06/14 17:10:27;;;;;;;3.13;2.58;;;;;;;37.26;21.28;100525.34;10199958;29;20078;-75
2023/06/14 17:15:30;;;;;;;5.90;2.90;;;;;;;38.01;20.53;100523.69;10192586;29;20063;-75
2023/06/14 17:20:33;;;;;;;3.97;2.88;;;;;;;37.77;20.18;100517.34;10197476;29;20440;-75
2023/06/14 17:25:37;;;;;;;6.03;2.83;;;;;;;37.97;20.21;100530.25;10200948;29;20522;-75
2023/06/14 17:30:40;;;;;;;3.22;2.90;;;;;;;38.23;20.38;100528.66;10199730;29;20043;-75
2023/06/14 17:35:43;;;;;;;6.30;3.03;;;;;;;38.19;20.47;100538.03;10197874;29;20056;-75
2023/06/14 17:40:47;;;;;;;3.78;2.80;;;;;;;36.14;21.53;100541.31;10190034;29;20039;-76
2023/06/14 17:45:52;;;;;;;4.88;3.10;;;;;;;34.90;22.79;100546.97;10191526;29;20511;-76
2023/06/14 17:50:55;;;;;;;4.07;2.83;;;;;;;31.23;26.19;100550.28;10190497;29;20039;-74
2023/06/14 17:56:01;;;;;;;4.45;2.72;;;;;;;28.03;29.91;100550.88;10187742;29;20043;-74
2023/06/14 18:01:04;;;;;;;4.38;2.95;;;;;;;26.74;31.16;100557.28;10191381;29;20048;-74
2023/06/14 18:06:07;;;;;;;5.53;3.33;;;;;;;25.88;32.42;100554.34;10196377;29;20146;-74
2023/06/14 18:11:11;;;;;;;7.70;3.55;;;;;;;25.12;32.98;100558.69;10194130;29;20047;-73
2023/06/14 18:16:16;;;;;;;4.63;3.42;;;;;;;24.51;33.82;100557.09;10191585;29;20139;-74
2023/06/14 18:21:20;;;;;;;9.55;3.40;;;;;;;23.96;34.80;100564.66;10188002;29;20044;-74
2023/06/14 18:26:27;;;;;;;8.85;3.47;;;;;;;23.83;34.92;100568.19;10188403;29;20039;-74
2023/06/14 18:31:30;;;;;;;9.60;3.20;;;;;;;23.75;34.78;100569.22;10187551;29;20130;-74
2023/06/14 18:36:33;;;;;;;6.03;3.42;;;;;;;23.66;35.07;100578.66;10180852;29;20084;-74
2023/06/14 18:41:39;;;;;;;9.35;3.88;;;;;;;23.35;35.88;100579.19;10183241;29;20058;-73
2023/06/14 18:46:42;;;;;;;4.53;4.07;;;;;;;23.07;36.49;100577.34;10184724;29;20054;-73
2023/06/14 18:51:46;;;;;;;3.97;3.38;;;;;;;22.90;36.66;100581.44;10186276;29;20688;-73
2023/06/14 18:56:50;;;;;;;5.93;3.28;;;;;;;22.78;37.38;100576.50;10189700;29;20039;-73
2023/06/14 19:01:54;;;;;;;5.28;3.30;;;;;;;22.63;37.44;100577.69;10189959;29;20048;-74
2023/06/14 19:06:57;;;;;;;9.13;4.00;;;;;;;22.50;37.54;100572.94;10191223;29;20541;-74
2023/06/14 19:12:01;;;;;;;8.02;3.22;;;;;;;22.43;37.73;100578.34;10199996;29;20079;-74
2023/06/14 19:17:06;;;;;;;9.05;4.25;;;;;;;22.33;38.11;100588.78;10201146;29;20074;-73
2023/06/14 19:22:09;;;;;;;6.03;3.65;;;;;;;22.25;38.70;100592.47;10201594;29;20044;-74
2023/06/14 19:27:13;;;;;;;5.32;3.90;;;;;;;22.02;40.24;100592.69;10201893;29;20043;-74
2023/06/14 19:32:16;;;;;;;4.25;3.20;;;;;;;21.62;40.55;100603.13;10203388;29;20048;-75
2023/06/14 19:37:19;;;;;;;5.38;3.65;;;;;;;21.24;41.00;100605.16;10205413;29;20585;-76
2023/06/14 19:42:23;;;;;;;7.13;3.42;;;;;;;21.10;41.52;100603.28;10205141;29;20054;-75
2023/06/14 19:47:26;;;;;;;5.65;3.63;;;;;;;21.13;42.08;100611.09;10202161;29;20051;-75
2023/06/14 19:52:29;;;;;;;4.50;3.30;;;;;;;21.01;41.61;100616.16;10199236;29;20048;-76
2023/06/14 19:57:34;;;;;;;5.85;3.88;;;;;;;21.04;41.72;100612.25;10189910;29;20492;-75
2023/06/14 20:02:36;;;;;;;7.28;3.67;;;;;;;21.07;41.78;100620.06;10194831;29;20070;-75
2023/06/14 20:07:39;;;;;;;6.78;3.78;;;;;;;20.99;42.00;100618.22;10194092;29;20035;-74
2023/06/14 20:12:44;;;;;;;5.93;3.40;;;;;;;20.92;42.52;100623.56;10201407;29;20051;-75
2023/06/14 20:17:47;;;;;;;5.90;3.53;;;;;;;20.81;42.61;100634.94;10204529;29;20047;-75
2023/06/14 20:22:50;;;;;;;4.07;3.70;;;;;;;20.70;42.75;100630.78;10199978;29;20089;-75
2023/06/14 20:27:55;;;;;;;6.13;4.13;;;;;;;20.59;42.92;100633.13;10199581;29;20039;-75
2023/06/14 20:32:58;;;;;;;6.53;3.92;;;;;;;20.42;43.31;100635.97;10196893;29;20039;-75
2023/06/14 20:38:01;;;;;;;6.00;3.55;;;;;;;20.31;43.58;100644.59;10199791;29;20483;-77
2023/06/14 20:43:07;;;;;;;5.85;3.78;;;;;;;20.28;43.46;100639.47;10197369;29;20119;-77
2023/06/14 20:48:10;;;;;;;6.80;4.13;;;;;;;20.13;43.66;100639.44;10194732;29;20059;-77
2023/06/14 20:53:13;;;;;;;7.35;3.83;;;;;;;20.11;43.68;100644.19;10201376;29;20587;-77
2023/06/14 20:58:18;;;;;;;7.95;4.32;;;;;;;20.02;43.74;100646.13;10200326;29;20052;-78
2023/06/14 21:03:21;;;;;;;7.95;4.50;;;;;;;19.90;43.88;100642.94;10194743;29;20036;-77
2023/06/14 21:08:24;;;;;;;6.80;3.75;;;;;;;19.97;44.17;100647.72;10196160;29;20039;-77
2023/06/14 21:13:29;;;;;;;6.40;3.65;;;;;;;20.00;44.28;100644.63;10194779;29;20062;-77
2023/06/14 21:18:32;;;;;;;7.85;3.75;;;;;;;19.80;44.07;100644.19;10196388;29;20507;-77
2023/06/14 21:23:34;;;;;;;4.60;3.72;;;;;;;19.81;44.91;100643.19;10197928;29;20499;-77
2023/06/14 21:28:39;;;;;;;4.57;3.92;;;;;;;19.89;44.95;100637.69;10197868;29;20051;-77
2023/06/14 21:33:41;;;;;;;4.85;4.00;;;;;;;19.85;44.98;100634.44;10188455;29;20044;-77
2023/06/14 21:38:44;;;;;;;5.43;3.80;;;;;;;19.60;45.44;100646.53;10191341;29;20046;-77
2023/06/14 21:43:48;;;;;;;4.38;3.58;;;;;;;19.43;45.79;100637.53;10190481;29;20053;-77
2023/06/14 21:48:51;;;;;;;5.38;3.85;;;;;;;19.24;46.06;100636.06;10197862;29;20142;-77
2023/06/14 21:53:56;;;;;;;4.85;3.92;;;;;;;18.99;46.44;100638.00;10201708;29;20033;-77
2023/06/14 21:59:00;;;;;;;7.97;3.47;;;;;;;18.78;46.55;100635.81;10198900;29;20052;-79
2023/06/14 22:04:03;;;;;;;7.75;4.22;;;;;;;18.63;47.54;100634.81;10192931;29;20036;-78
2023/06/14 22:09:06;;;;;;;5.35;3.60;;;;;;;18.64;47.83;100636.50;10191281;29;20059;-77
2023/06/14 22:14:11;;;;;;;9.82;4.28;;;;;;;18.70;48.21;100643.97;10189093;29;20040;-77
2023/06/14 22:19:15;;;;;;;5.75;4.15;;;;;;;18.67;47.93;100645.16;10188003;29;20048;-77
2023/06/14 22:24:18;;;;;;;7.18;4.18;;;;;;;18.66;48.02;100650.78;10183690;29;20044;-76
2023/06/14 22:29:22;;;;;;;7.00;4.25;;;;;;;18.65;47.99;100658.09;10184821;29;20107;-77
2023/06/14 22:34:25;;;;;;;7.30;4.43;;;;;;;18.64;47.58;100650.94;10185712;29;20562;-77
2023/06/14 22:39:28;;;;;;;7.47;4.22;;;;;;;18.62;47.65;100658.41;10183432;29;20043;-76
2023/06/14 22:44:33;;;;;;;9.52;4.20;;;;;;;18.55;47.69;100662.84;10191751;29;20048;-76
2023/06/14 22:49:39;;;;;;;9.27;4.13;;;;;;;18.34;47.97;100657.91;10193452;29;20040;-76
2023/06/14 22:54:44;;;;;;;5.40;4.22;;;;;;;18.31;48.40;100660.97;10199937;29;20048;-77
2023/06/14 22:59:48;;;;;;;8.18;4.38;;;;;;;18.32;48.65;100655.38;10200956;29;20488;-77
2023/06/14 23:04:51;;;;;;;8.32;4.85;;;;;;;18.33;48.54;100658.94;10202300;29;20040;-77
2023/06/14 23:09:56;;;;;;;4.50;4.10;;;;;;;18.25;48.69;100657.06;10199798;29;20051;-76
2023/06/14 23:15:02;;;;;;;5.57;4.00;;;;;;;18.08;49.04;100656.19;10206252;29;20110;-76
2023/06/14 23:20:07;;;;;;;4.85;3.97;;;;;;;17.86;49.50;100657.63;10199893;29;20046;-76